createdAt,value
2018-07-12T00:02:28.081Z,99679.28
2018-07-12T00:04:56.668Z,99677.01
2018-07-12T00:07:24.973Z,99673.02
2018-07-12T00:09:53.278Z,99673.91
2018-07-12T00:12:21.551Z,99672.56
2018-07-12T00:14:49.874Z,99674.16
2018-07-12T00:17:18.376Z,99667.84
2018-07-12T00:19:46.875Z,99675.70
2018-07-12T00:22:15.376Z,99671.78
2018-07-12T00:24:43.653Z,99676.28
2018-07-12T00:27:11.905Z,99680.04
2018-07-12T00:29:40.461Z,99673.16
2018-07-12T00:32:09.030Z,99669.31
2018-07-12T00:34:37.446Z,99672.48
2018-07-12T00:37:05.846Z,99674.28
2018-07-12T00:39:33.947Z,99671.30
2018-07-12T00:42:02.191Z,99668.25
2018-07-12T00:44:30.420Z,99665.33
2018-07-12T00:49:38.345Z,99671.10
2018-07-12T00:52:06.530Z,99673.27
2018-07-12T00:54:34.717Z,99668.38
2018-07-12T00:57:02.971Z,99665.41
2018-07-12T00:59:31.194Z,99666.47
2018-07-12T01:02:00.421Z,99665.34
2018-07-12T01:04:28.734Z,99672.20
2018-07-12T01:06:56.936Z,99674.08
2018-07-12T01:09:25.253Z,99669.22
2018-07-12T01:11:53.497Z,99667.31
2018-07-12T01:14:21.776Z,99669.03
2018-07-12T01:16:49.992Z,99670.16
2018-07-12T01:19:18.221Z,99668.44
2018-07-12T01:21:46.499Z,99665.94
2018-07-12T01:24:14.712Z,99673.83
2018-07-12T01:26:42.985Z,99670.06
2018-07-12T01:29:11.181Z,99671.48
2018-07-12T01:31:39.397Z,99671.11
2018-07-12T01:34:07.613Z,99679.44
2018-07-12T01:36:35.800Z,99680.76
2018-07-12T01:39:05.128Z,99673.40
2018-07-12T01:41:33.345Z,99677.31
2018-07-12T01:44:01.568Z,99673.05
2018-07-12T01:46:30.007Z,99678.75
2018-07-12T01:48:58.215Z,99677.41
2018-07-12T01:51:26.493Z,99672.30
2018-07-12T01:53:54.704Z,99667.45
2018-07-12T01:56:22.930Z,99667.88
2018-07-12T01:58:51.362Z,99670.12
2018-07-12T02:01:19.735Z,99667.69
2018-07-12T02:03:47.946Z,99668.78
2018-07-12T02:06:16.156Z,99659.36
2018-07-12T02:08:44.358Z,99662.27
2018-07-12T02:11:12.617Z,99671.55
2018-07-12T02:13:40.823Z,99663.91
2018-07-12T02:16:09.093Z,99671.14
2018-07-12T02:18:37.340Z,99666.53
2018-07-12T02:21:05.557Z,99668.63
2018-07-12T02:23:33.994Z,99661.44
2018-07-12T02:26:02.274Z,99658.08
2018-07-12T02:28:30.481Z,99656.16
2018-07-12T02:30:58.698Z,99656.90
2018-07-12T02:33:26.964Z,99644.95
2018-07-12T02:35:55.202Z,99652.20
2018-07-12T02:38:23.393Z,99646.02
2018-07-12T02:40:51.703Z,99643.86
2018-07-12T02:43:19.910Z,99638.03
2018-07-12T02:45:48.101Z,99636.86
2018-07-12T02:48:16.574Z,99634.24
2018-07-12T02:50:44.776Z,99629.06
2018-07-12T02:53:13.029Z,99630.13
2018-07-12T02:55:41.249Z,99636.25
2018-07-12T02:58:09.541Z,99638.56
2018-07-12T03:00:37.778Z,99635.99
2018-07-12T03:03:05.956Z,99634.24
2018-07-12T03:05:34.242Z,99638.47
2018-07-12T03:08:02.493Z,99637.89
2018-07-12T03:10:30.957Z,99641.97
2018-07-12T03:12:59.212Z,99632.20
2018-07-12T03:15:27.537Z,99629.14
2018-07-12T03:17:56.266Z,99634.38
2018-07-12T03:20:24.457Z,99639.52
2018-07-12T03:22:52.702Z,99645.13
2018-07-12T03:25:21.091Z,99639.34
2018-07-12T03:27:49.283Z,99641.98
2018-07-12T03:30:17.509Z,99646.53
2018-07-12T03:32:45.714Z,99642.27
2018-07-12T03:35:13.932Z,99646.75
2018-07-12T03:37:42.172Z,99651.25
2018-07-12T03:40:10.373Z,99656.30
2018-07-12T03:42:38.558Z,99653.59
2018-07-12T03:45:06.745Z,99653.42
2018-07-12T03:47:34.978Z,99650.41
2018-07-12T03:50:03.309Z,99656.59
2018-07-12T03:52:31.539Z,99658.71
2018-07-12T03:54:59.725Z,99658.75
2018-07-12T03:57:28.057Z,99662.50
2018-07-12T03:59:56.241Z,99662.46
2018-07-12T04:02:24.501Z,99667.35
2018-07-12T04:04:52.750Z,99668.57
2018-07-12T04:07:20.953Z,99666.41
2018-07-12T04:09:49.140Z,99663.31
2018-07-12T04:12:17.337Z,99665.42
2018-07-12T04:14:45.607Z,99664.68
2018-07-12T04:17:17.922Z,99662.52
2018-07-12T04:19:46.133Z,99662.67
2018-07-12T04:22:14.386Z,99664.52
2018-07-12T04:24:42.688Z,99661.92
2018-07-12T04:27:10.893Z,99662.62
2018-07-12T04:29:39.074Z,99671.41
2018-07-12T04:32:07.335Z,99667.77
2018-07-12T04:34:35.612Z,99664.94
2018-07-12T04:37:04.071Z,99661.66
2018-07-12T04:39:32.574Z,99655.74
2018-07-12T04:42:00.873Z,99651.08
2018-07-12T04:44:29.171Z,99644.58
2018-07-12T04:46:57.409Z,99648.34
2018-07-12T04:49:25.692Z,99640.46
2018-07-12T04:51:55.670Z,99642.06
2018-07-12T04:54:24.455Z,99643.56
2018-07-12T04:56:52.713Z,99649.06
2018-07-12T04:59:21.572Z,99653.14
2018-07-12T05:01:50.538Z,99646.62
2018-07-12T05:04:18.942Z,99657.99
2018-07-12T05:06:47.152Z,99656.06
2018-07-12T05:09:15.381Z,99657.80
2018-07-12T05:11:43.694Z,99655.34
2018-07-12T05:14:14.008Z,99656.98
2018-07-12T05:16:42.292Z,99654.83
2018-07-12T05:19:11.109Z,99645.56
2018-07-12T05:21:39.496Z,99649.72
2018-07-12T05:24:07.768Z,99650.69
2018-07-12T05:26:36.570Z,99643.78
2018-07-12T05:29:05.536Z,99647.30
2018-07-12T05:31:34.321Z,99643.45
2018-07-12T05:34:03.154Z,99641.59
2018-07-12T05:37:05.493Z,99641.70
2018-07-12T05:39:35.956Z,99647.62
2018-07-12T05:42:06.194Z,99650.27
2018-07-12T05:44:36.453Z,99653.61
2018-07-12T05:47:07.053Z,99646.59
2018-07-12T05:49:37.875Z,99648.07
2018-07-12T05:52:08.874Z,99645.16
2018-07-12T05:54:39.359Z,99645.41
2018-07-12T05:57:10.085Z,99647.68
2018-07-12T05:59:40.732Z,99650.81
2018-07-12T06:02:20.597Z,99644.97
2018-07-12T06:04:51.507Z,99650.03
2018-07-12T06:07:31.325Z,99638.05
2018-07-12T06:10:01.714Z,99639.05
2018-07-12T06:12:32.561Z,99635.80
2018-07-12T06:15:02.942Z,99645.42
2018-07-12T06:17:33.372Z,99640.41
2018-07-12T06:20:03.834Z,99639.45
2018-07-12T06:22:33.970Z,99643.78
2018-07-12T06:25:04.695Z,99639.19
2018-07-12T06:27:35.202Z,99646.48
2018-07-12T06:30:07.064Z,99643.36
2018-07-12T06:32:37.655Z,99643.84
2018-07-12T06:35:08.433Z,99641.47
2018-07-12T06:37:38.996Z,99646.94
2018-07-12T06:40:09.286Z,99651.14
2018-07-12T06:42:39.786Z,99659.19
2018-07-12T06:45:10.765Z,99659.34
2018-07-12T06:47:41.273Z,99653.61
2018-07-12T06:50:11.932Z,99649.21
2018-07-12T06:52:42.472Z,99648.05
2018-07-12T06:55:12.918Z,99641.31
2018-07-12T06:57:43.457Z,99649.69
2018-07-12T07:00:13.935Z,99639.62
2018-07-12T07:02:44.301Z,99647.27
2018-07-12T07:05:14.738Z,99645.91
2018-07-12T07:07:44.857Z,99649.11
2018-07-12T07:10:15.301Z,99648.82
2018-07-12T07:12:45.702Z,99650.34
2018-07-12T07:15:16.216Z,99644.35
2018-07-12T07:17:47.593Z,99642.53
2018-07-12T07:20:18.272Z,99635.87
2018-07-12T07:22:48.810Z,99640.16
2018-07-12T07:25:19.502Z,99637.38
2018-07-12T07:27:49.625Z,99646.44
2018-07-12T07:30:19.977Z,99641.69
2018-07-12T07:32:50.333Z,99636.88
2018-07-12T07:35:20.766Z,99634.45
2018-07-12T07:37:51.093Z,99635.54
2018-07-12T07:40:21.473Z,99645.91
2018-07-12T07:42:51.806Z,99645.20
2018-07-12T07:45:22.399Z,99638.48
2018-07-12T07:47:52.754Z,99644.42
2018-07-12T07:50:23.159Z,99644.27
2018-07-12T07:52:54.010Z,99637.89
2018-07-12T07:55:24.426Z,99637.85
2018-07-12T07:57:54.545Z,99636.23
2018-07-12T08:00:24.837Z,99638.48
2018-07-12T08:02:55.133Z,99634.91
2018-07-12T08:05:25.477Z,99635.02
2018-07-12T08:07:55.851Z,99634.27
2018-07-12T08:10:28.073Z,99637.98
2018-07-12T08:12:58.492Z,99635.23
2018-07-12T08:15:28.805Z,99634.20
2018-07-12T08:17:59.301Z,99629.14
2018-07-12T08:20:29.638Z,99623.89
2018-07-12T08:22:59.978Z,99626.95
2018-07-12T08:25:30.316Z,99628.39
2018-07-12T08:28:11.653Z,99622.97
2018-07-12T08:30:41.862Z,99628.73
2018-07-12T08:33:12.234Z,99623.49
2018-07-12T08:35:42.595Z,99620.62
2018-07-12T08:38:12.917Z,99619.87
2018-07-12T08:40:43.578Z,99620.60
2018-07-12T08:43:14.105Z,99612.41
2018-07-12T08:45:44.972Z,99612.61
2018-07-12T08:48:15.628Z,99606.08
2018-07-12T08:50:46.344Z,99610.05
2018-07-12T08:53:17.247Z,99602.53
2018-07-12T08:55:47.641Z,99603.86
2018-07-12T08:58:18.098Z,99598.21
2018-07-12T09:00:48.849Z,99598.47
2018-07-12T09:03:19.501Z,99599.20
2018-07-12T09:05:50.200Z,99603.11
2018-07-12T09:08:20.845Z,99608.26
2018-07-12T09:10:51.231Z,99598.48
2018-07-12T09:13:21.892Z,99602.30
2018-07-12T09:15:52.557Z,99594.67
2018-07-12T09:18:23.466Z,99602.98
2018-07-12T09:20:54.165Z,99599.50
2018-07-12T09:23:24.794Z,99596.89
2018-07-12T09:25:55.517Z,99599.50
2018-07-12T09:28:26.264Z,99599.05
2018-07-12T09:30:56.992Z,99595.00
2018-07-12T09:33:27.849Z,99592.84
2018-07-12T09:35:58.704Z,99590.73
2018-07-12T09:38:49.970Z,99595.96
2018-07-12T09:41:22.064Z,99602.00
2018-07-12T09:43:52.787Z,99597.88
2018-07-12T09:46:23.258Z,99592.80
2018-07-12T09:48:53.899Z,99588.67
2018-07-12T09:51:24.372Z,99589.37
2018-07-12T09:53:54.948Z,99586.20
2018-07-12T09:56:35.130Z,99580.14
2018-07-12T09:59:05.664Z,99581.64
2018-07-12T10:01:41.482Z,99585.03
2018-07-12T10:04:12.097Z,99575.02
2018-07-12T10:06:47.930Z,99570.80
2018-07-12T10:09:23.670Z,99571.81
2018-07-12T10:11:59.413Z,99568.41
2018-07-12T10:14:35.393Z,99572.91
2018-07-12T10:17:11.551Z,99571.00
2018-07-12T10:19:43.123Z,99592.91
2018-07-12T10:22:13.788Z,99594.94
2018-07-12T10:24:44.413Z,99611.17
2018-07-12T10:27:15.098Z,99620.80
2018-07-12T10:29:45.779Z,99632.78
2018-07-12T10:32:16.498Z,99628.81
2018-07-12T10:34:47.170Z,99624.67
2018-07-12T10:37:17.416Z,99634.64
2018-07-12T10:39:47.520Z,99642.75
2018-07-12T10:42:17.613Z,99652.17
2018-07-12T10:44:47.673Z,99653.98
2018-07-12T10:47:17.734Z,99649.79
2018-07-12T10:49:47.829Z,99648.73
2018-07-12T10:52:17.906Z,99651.75
2018-07-12T10:54:47.984Z,99655.84
2018-07-12T10:57:18.040Z,99653.67
2018-07-12T10:59:48.085Z,99648.00
2018-07-12T11:02:18.210Z,99652.34
2018-07-12T11:04:48.313Z,99667.52
2018-07-12T11:07:18.749Z,99677.80
2018-07-12T11:09:48.843Z,99676.62
2018-07-12T11:12:18.909Z,99666.75
2018-07-12T11:14:48.984Z,99664.20
2018-07-12T11:17:19.043Z,99662.55
2018-07-12T11:19:49.166Z,99655.70
2018-07-12T11:22:19.331Z,99655.42
2018-07-12T11:24:49.384Z,99653.18
2018-07-12T11:27:19.433Z,99650.67
2018-07-12T11:29:53.712Z,99645.73
2018-07-12T11:32:23.823Z,99647.85
2018-07-12T11:34:53.883Z,99644.49
2018-07-12T11:37:25.618Z,99651.78
2018-07-12T11:39:55.678Z,99644.38
2018-07-12T11:42:25.757Z,99646.05
2018-07-12T11:44:55.844Z,99652.65
2018-07-12T11:47:25.998Z,99648.63
2018-07-12T11:49:56.074Z,99646.52
2018-07-12T11:52:26.141Z,99652.84
2018-07-12T11:54:56.600Z,99650.49
2018-07-12T11:57:26.721Z,99658.42
2018-07-12T11:59:56.784Z,99661.77
2018-07-12T12:02:26.853Z,99663.93
2018-07-12T12:04:56.885Z,99659.63
2018-07-12T12:07:26.989Z,99666.77
2018-07-12T12:09:57.042Z,99670.27
2018-07-12T12:12:27.170Z,99675.95
2018-07-12T12:14:56.977Z,99671.88
2018-07-12T12:17:27.037Z,99673.45
2018-07-12T12:19:57.109Z,99668.77
2018-07-12T12:22:27.186Z,99675.05
2018-07-12T12:24:57.237Z,99682.15
2018-07-12T12:27:27.320Z,99679.39
2018-07-12T12:29:57.370Z,99672.53
2018-07-12T12:32:27.457Z,99669.11
2018-07-12T12:34:57.530Z,99677.05
2018-07-12T12:37:27.705Z,99679.42
2018-07-12T12:39:57.748Z,99676.98
2018-07-12T12:42:27.825Z,99670.73
2018-07-12T12:44:57.724Z,99670.23
2018-07-12T12:47:27.905Z,99668.20
2018-07-12T12:49:58.020Z,99660.61
2018-07-12T12:52:28.185Z,99658.47
2018-07-12T12:54:59.435Z,99657.73
2018-07-12T12:57:30.094Z,99652.95
2018-07-12T13:00:00.879Z,99651.13
2018-07-12T13:02:31.553Z,99652.37
2018-07-12T13:05:02.252Z,99651.41
2018-07-12T13:07:32.890Z,99644.29
2018-07-12T13:10:03.564Z,99641.78
2018-07-12T13:12:34.245Z,99642.24
2018-07-12T13:15:05.153Z,99648.74
2018-07-12T13:17:35.814Z,99635.85
2018-07-12T13:20:06.464Z,99637.31
2018-07-12T13:22:37.305Z,99634.39
2018-07-12T13:25:07.872Z,99631.53
2018-07-12T13:27:38.422Z,99632.34
2018-07-12T13:30:09.320Z,99629.27
2018-07-12T13:32:40.033Z,99622.23
2018-07-12T13:35:10.678Z,99620.78
2018-07-12T13:37:41.361Z,99614.98
2018-07-12T13:40:12.080Z,99616.44
2018-07-12T13:42:42.744Z,99610.52
2018-07-12T13:45:13.374Z,99612.48
2018-07-12T13:47:44.108Z,99614.55
2018-07-12T13:50:14.770Z,99612.58
2018-07-12T13:52:45.571Z,99608.97
2018-07-12T13:55:17.631Z,99600.52
2018-07-12T13:57:48.370Z,99596.06
2018-07-12T14:00:19.070Z,99594.27
2018-07-12T14:02:49.845Z,99593.13
2018-07-12T14:05:20.506Z,99591.86
2018-07-12T14:07:51.232Z,99587.61
2018-07-12T14:10:21.958Z,99589.45
2018-07-12T14:12:52.727Z,99581.69
2018-07-12T14:15:23.681Z,99583.27
2018-07-12T14:17:55.138Z,99583.44
2018-07-12T14:20:26.584Z,99581.19
2018-07-12T14:22:58.106Z,99578.99
2018-07-12T14:25:29.284Z,99576.62
2018-07-12T14:28:00.045Z,99571.64
2018-07-12T14:30:30.718Z,99572.79
2018-07-12T14:33:01.401Z,99563.89
2018-07-12T14:35:32.098Z,99565.08
2018-07-12T14:38:02.785Z,99557.80
2018-07-12T14:40:33.464Z,99557.27
2018-07-12T14:43:04.149Z,99549.44
2018-07-12T14:45:34.865Z,99545.67
2018-07-12T14:48:05.582Z,99540.20
2018-07-12T14:50:35.683Z,99537.84
2018-07-12T14:53:06.370Z,99537.77
2018-07-12T14:55:37.281Z,99538.02
2018-07-12T14:58:07.451Z,99540.88
2018-07-12T15:00:38.187Z,99533.09
2018-07-12T15:03:08.301Z,99532.65
2018-07-12T15:05:38.370Z,99532.95
2018-07-12T15:08:09.184Z,99531.47
2018-07-12T15:10:39.849Z,99524.94
2018-07-12T15:13:09.913Z,99531.78
2018-07-12T15:15:39.994Z,99525.64
2018-07-12T15:18:10.098Z,99531.23
2018-07-12T15:20:40.206Z,99519.38
2018-07-12T15:23:10.286Z,99531.31
2018-07-12T15:25:40.420Z,99527.34
2018-07-12T15:28:10.475Z,99522.45
2018-07-12T15:30:41.171Z,99532.35
2018-07-12T15:33:11.302Z,99518.05
2018-07-12T15:35:42.172Z,99521.62
2018-07-12T15:38:13.101Z,99527.76
2018-07-12T15:40:43.973Z,99519.08
2018-07-12T15:43:14.666Z,99517.58
2018-07-12T15:45:45.336Z,99520.86
2018-07-12T15:48:16.028Z,99522.03
2018-07-12T15:50:45.886Z,99521.37
2018-07-12T15:53:15.946Z,99519.27
2018-07-12T15:55:46.246Z,99512.28
2018-07-12T15:58:16.309Z,99519.89
2018-07-12T16:00:47.080Z,99519.48
2018-07-12T16:03:17.157Z,99524.11
2018-07-12T16:05:47.258Z,99520.33
2018-07-12T16:08:17.319Z,99521.14
2018-07-12T16:10:47.375Z,99530.33
2018-07-12T16:13:18.025Z,99532.02
2018-07-12T16:15:48.077Z,99525.78
2018-07-12T16:18:18.193Z,99529.57
2018-07-12T16:20:48.245Z,99532.33
2018-07-12T16:23:18.327Z,99531.31
2018-07-12T16:25:48.361Z,99536.63
2018-07-12T16:28:18.574Z,99532.30
2018-07-12T16:30:48.709Z,99528.42
2018-07-12T16:33:19.357Z,99539.27
2018-07-12T16:35:50.097Z,99542.08
2018-07-12T16:38:20.762Z,99540.08
2018-07-12T16:40:50.938Z,99545.67
2018-07-12T16:43:21.645Z,99541.74
2018-07-12T16:45:51.743Z,99542.66
2018-07-12T16:48:21.902Z,99545.55
2018-07-12T16:50:51.971Z,99546.99
2018-07-12T16:53:22.081Z,99549.83
2018-07-12T16:55:52.253Z,99547.71
2018-07-12T16:58:22.354Z,99556.16
2018-07-12T17:00:52.431Z,99550.75
2018-07-12T17:03:22.541Z,99552.95
2018-07-12T17:05:52.581Z,99552.16
2018-07-12T17:08:22.655Z,99548.38
2018-07-12T17:10:52.705Z,99553.25
2018-07-12T17:13:22.786Z,99539.73
2018-07-12T17:15:53.097Z,99545.18
2018-07-12T17:18:23.193Z,99541.39
2018-07-12T17:20:53.307Z,99537.89
2018-07-12T17:23:23.359Z,99531.66
2018-07-12T17:25:53.426Z,99530.28
2018-07-12T17:28:23.569Z,99523.73
2018-07-12T17:30:53.749Z,99527.47
2018-07-12T17:33:23.874Z,99535.56
2018-07-12T17:35:54.118Z,99532.89
2018-07-12T17:38:24.219Z,99530.52
2018-07-12T17:40:54.300Z,99540.84
2018-07-12T17:43:24.398Z,99547.11
2018-07-12T17:45:54.481Z,99545.16
2018-07-12T17:48:24.337Z,99546.73
2018-07-12T17:50:54.420Z,99544.49
2018-07-12T17:53:24.215Z,99543.63
2018-07-12T17:55:54.353Z,99547.16
2018-07-12T17:58:24.433Z,99545.75
2018-07-12T18:00:54.518Z,99540.34
2018-07-12T18:03:24.457Z,99540.13
2018-07-12T18:05:54.638Z,99546.16
2018-07-12T18:08:24.693Z,99547.09
2018-07-12T18:10:54.817Z,99544.37
2018-07-12T18:13:25.321Z,99547.09
2018-07-12T18:15:55.459Z,99550.19
2018-07-12T18:18:25.739Z,99547.84
2018-07-12T18:20:55.878Z,99549.75
2018-07-12T18:23:25.942Z,99548.95
2018-07-12T18:25:57.071Z,99550.86
2018-07-12T18:28:27.173Z,99545.73
2018-07-12T18:30:57.411Z,99553.08
2018-07-12T18:33:27.524Z,99552.02
2018-07-12T18:35:57.632Z,99544.45
2018-07-12T18:38:27.910Z,99548.54
2018-07-12T18:40:58.033Z,99548.80
2018-07-12T18:43:28.110Z,99554.50
2018-07-12T18:45:58.463Z,99555.36
2018-07-12T18:48:28.621Z,99553.99
2018-07-12T18:50:58.548Z,99559.96
2018-07-12T18:53:28.641Z,99564.84
2018-07-12T18:55:58.989Z,99565.91
2018-07-12T18:58:29.302Z,99570.53
2018-07-12T19:00:59.387Z,99567.00
2018-07-12T19:03:29.457Z,99574.54
2018-07-12T19:05:59.502Z,99578.62
2018-07-12T19:08:29.562Z,99576.16
2018-07-12T19:10:59.739Z,99581.85
2018-07-12T19:13:29.798Z,99578.60
2018-07-12T19:15:59.870Z,99581.58
2018-07-12T19:18:29.793Z,99576.45
2018-07-12T19:21:03.433Z,99585.39
2018-07-12T19:23:33.962Z,99571.58
2018-07-12T19:26:04.043Z,99582.41
2018-07-12T19:28:34.800Z,99579.70
2018-07-12T19:31:05.146Z,99568.58
2018-07-12T19:33:35.304Z,99577.52
2018-07-12T19:36:05.605Z,99579.97
2018-07-12T19:38:35.797Z,99586.45
2018-07-12T19:41:05.882Z,99574.02
2018-07-12T19:43:35.977Z,99570.48
2018-07-12T19:46:06.112Z,99578.34
2018-07-12T19:48:36.218Z,99575.89
2018-07-12T19:51:06.457Z,99577.23
2018-07-12T19:53:37.891Z,99578.27
2018-07-12T19:56:08.050Z,99576.33
2018-07-12T19:58:38.217Z,99581.17
2018-07-12T20:01:08.781Z,99588.87
2018-07-12T20:03:39.192Z,99592.07
2018-07-12T20:06:09.403Z,99591.75
2018-07-12T20:08:39.524Z,99600.36
2018-07-12T20:11:09.713Z,99602.84
2018-07-12T20:13:39.878Z,99600.00
2018-07-12T20:16:10.226Z,99605.37
2018-07-12T20:18:40.313Z,99602.58
2018-07-12T20:21:10.643Z,99600.13
2018-07-12T20:23:40.481Z,99602.84
2018-07-12T20:26:10.576Z,99604.41
2018-07-12T20:28:40.906Z,99605.16
2018-07-12T20:31:11.089Z,99612.11
2018-07-12T20:33:41.439Z,99610.44
2018-07-12T20:36:12.339Z,99609.89
2018-07-12T20:38:42.562Z,99606.08
2018-07-12T20:41:13.034Z,99609.83
2018-07-12T20:43:43.131Z,99606.81
2018-07-12T20:46:13.240Z,99602.80
2018-07-12T20:48:43.394Z,99608.44
2018-07-12T20:51:13.625Z,99619.70
2018-07-12T20:53:43.707Z,99627.18
2018-07-12T20:56:13.893Z,99628.27
2018-07-12T20:58:43.933Z,99620.69
2018-07-12T21:01:14.059Z,99627.03
2018-07-12T21:03:44.117Z,99625.70
2018-07-12T21:06:14.193Z,99620.37
2018-07-12T21:08:44.032Z,99625.22
2018-07-12T21:11:14.404Z,99622.26
2018-07-12T21:13:46.753Z,99616.87
2018-07-12T21:16:16.852Z,99618.55
2018-07-12T21:18:46.762Z,99622.05
2018-07-12T21:21:16.902Z,99623.67
2018-07-12T21:23:47.051Z,99624.21
2018-07-12T21:26:17.150Z,99622.72
2018-07-12T21:28:47.205Z,99622.67
2018-07-12T21:31:17.283Z,99620.49
2018-07-12T21:33:47.342Z,99622.88
2018-07-12T21:36:17.428Z,99626.13
2018-07-12T21:38:48.245Z,99630.72
2018-07-12T21:41:18.336Z,99630.55
2018-07-12T21:43:48.490Z,99624.66
2018-07-12T21:46:18.800Z,99621.91
2018-07-12T21:48:49.002Z,99628.95
2018-07-12T21:51:19.115Z,99630.02
2018-07-12T21:53:49.241Z,99624.09
2018-07-12T21:56:19.720Z,99631.70
2018-07-12T21:58:49.835Z,99636.63
2018-07-12T22:01:20.010Z,99632.58
2018-07-12T22:03:49.887Z,99632.30
2018-07-12T22:06:29.454Z,99627.12
2018-07-12T22:08:59.434Z,99622.08
2018-07-12T22:11:29.739Z,99620.14
2018-07-12T22:14:04.259Z,99625.55
2018-07-12T22:16:34.517Z,99631.98
2018-07-12T22:19:07.374Z,99634.08
2018-07-12T22:21:37.802Z,99642.17
2018-07-12T22:24:07.915Z,99640.39
2018-07-12T22:26:38.645Z,99637.44
2018-07-12T22:29:08.730Z,99629.01
2018-07-12T22:31:39.793Z,99616.03
2018-07-12T22:34:10.133Z,99620.36
2018-07-12T22:36:42.540Z,99619.81
2018-07-12T22:39:13.102Z,99624.36
2018-07-12T22:41:46.747Z,99633.26
2018-07-12T22:44:20.590Z,99632.12
2018-07-12T22:46:51.214Z,99641.77
2018-07-12T22:49:21.480Z,99640.64
2018-07-12T22:51:51.990Z,99640.64
2018-07-12T22:54:22.118Z,99639.63
2018-07-12T22:56:52.748Z,99629.95
2018-07-12T22:59:23.765Z,99621.30
2018-07-12T23:01:54.744Z,99625.84
2018-07-12T23:04:24.996Z,99640.02
2018-07-12T23:06:55.772Z,99645.61
2018-07-12T23:09:28.178Z,99642.09
2018-07-12T23:11:59.048Z,99645.63
2018-07-12T23:14:29.320Z,99642.05
2018-07-12T23:16:59.482Z,99648.75
2018-07-12T23:19:29.655Z,99651.89
2018-07-12T23:22:06.592Z,99645.42
2018-07-12T23:24:38.531Z,99656.88
2018-07-12T23:27:08.809Z,99662.96
2018-07-12T23:29:39.530Z,99668.11
2018-07-12T23:32:09.641Z,99654.33
2018-07-12T23:34:39.702Z,99657.64
2018-07-12T23:37:10.088Z,99656.09
2018-07-12T23:39:40.226Z,99653.06
2018-07-12T23:42:10.473Z,99655.19
2018-07-12T23:44:40.724Z,99657.47
2018-07-12T23:47:11.727Z,99650.81
2018-07-12T23:49:43.828Z,99659.03
2018-07-12T23:52:13.803Z,99658.37
2018-07-12T23:54:44.113Z,99663.59
2018-07-12T23:57:14.394Z,99667.26
2018-07-12T23:59:46.103Z,99674.14
